Time;durP1;ratioP1;P1;durP2;ratioP2;P2;SDS_P1;SDS_P2;PMS_P1;PMS_P2;Temp;Humidity;BMP_temperature;BMP_pressure;BME280_temperature;BME280_humidity;BME280_pressure;Samples;Min_cycle;Max_cycle;Signal;HPM_P1;HPM_P2
2022/12/04 00:01:56;;;;;;;49.22;17.63;;;;;;;;;;5050693;28;20064;-71
2022/12/04 00:04:22;;;;;;;52.78;20.55;;;;;;;;;;5050456;28;20040;-71
2022/12/04 00:06:48;;;;;;;33.35;12.93;;;;;;;;;;5034216;28;20048;-72
2022/12/04 00:09:14;;;;;;;50.35;18.92;;;;;;;;;;5033727;28;20037;-71
2022/12/04 00:11:40;;;;;;;53.35;19.92;;;;;;;;;;5050610;28;20041;-71
2022/12/04 00:14:07;;;;;;;46.50;19.30;;;;;;;;;;5017377;28;20087;-71
2022/12/04 00:16:33;;;;;;;43.90;15.95;;;;;;;;;;5034018;28;20045;-72
2022/12/04 00:18:59;;;;;;;51.72;18.77;;;;;;;;;;5050646;28;20083;-71
2022/12/04 00:21:25;;;;;;;39.88;15.38;;;;;;;;;;5050274;28;20045;-71
2022/12/04 00:23:51;;;;;;;53.78;20.63;;;;;;;;;;5050486;28;20123;-71
2022/12/04 00:26:24;;;;;;;54.13;20.00;;;;;;;;;;5050163;28;20120;-71
2022/12/04 00:28:51;;;;;;;52.33;20.58;;;;;;;;;;5050548;28;20076;-72
2022/12/04 00:31:19;;;;;;;50.35;19.75;;;;;;;;;;5050222;28;20124;-71
2022/12/04 00:33:45;;;;;;;47.83;18.08;;;;;;;;;;5043603;28;20044;-72
2022/12/04 00:36:12;;;;;;;45.25;17.75;;;;;;;;;;5047520;28;20045;-72
2022/12/04 00:38:39;;;;;;;48.00;20.05;;;;;;;;;;5050203;28;20033;-71
2022/12/04 00:41:07;;;;;;;51.00;19.38;;;;;;;;;;5050498;28;20044;-72
2022/12/04 00:43:33;;;;;;;55.80;20.75;;;;;;;;;;5050249;28;20068;-72
2022/12/04 00:45:59;;;;;;;57.88;21.65;;;;;;;;;;5034310;28;20040;-71
2022/12/04 00:48:26;;;;;;;57.40;21.02;;;;;;;;;;5050101;28;20041;-72
2022/12/04 00:50:53;;;;;;;49.47;19.15;;;;;;;;;;5050559;28;20046;-71
2022/12/04 00:53:19;;;;;;;54.55;20.40;;;;;;;;;;5051046;28;20037;-72
2022/12/04 00:55:45;;;;;;;48.22;19.88;;;;;;;;;;5033726;28;20120;-72
2022/12/04 00:58:11;;;;;;;51.55;19.98;;;;;;;;;;5050075;28;20120;-72
2022/12/04 01:00:38;;;;;;;46.38;17.60;;;;;;;;;;5050245;28;20063;-73
2022/12/04 01:03:04;;;;;;;54.42;20.55;;;;;;;;;;5051976;28;20079;-72
2022/12/04 01:05:30;;;;;;;54.45;21.58;;;;;;;;;;5053135;28;20374;-72
2022/12/04 01:07:57;;;;;;;46.70;17.30;;;;;;;;;;5055483;28;20511;-71
2022/12/04 01:10:23;;;;;;;51.67;20.75;;;;;;;;;;5053293;28;20045;-71
2022/12/04 01:12:50;;;;;;;51.63;20.17;;;;;;;;;;5037238;28;20116;-71
2022/12/04 01:15:16;;;;;;;48.33;16.38;;;;;;;;;;5053471;28;20052;-71
2022/12/04 01:17:44;;;;;;;39.88;15.82;;;;;;;;;;5053754;28;20167;-71
2022/12/04 01:20:11;;;;;;;51.95;19.67;;;;;;;;;;5059084;28;20444;-71
2022/12/04 01:22:37;;;;;;;56.50;21.13;;;;;;;;;;5056952;28;20040;-71
2022/12/04 01:25:03;;;;;;;57.42;21.08;;;;;;;;;;5063599;28;20115;-71
2022/12/04 01:27:29;;;;;;;41.97;16.15;;;;;;;;;;5064299;28;20438;-71
2022/12/04 01:29:55;;;;;;;51.42;20.27;;;;;;;;;;5068465;28;20055;-72
2022/12/04 01:32:21;;;;;;;47.38;17.25;;;;;;;;;;5073064;28;20041;-71
2022/12/04 01:34:47;;;;;;;42.05;15.32;;;;;;;;;;5071137;28;20041;-72
2022/12/04 01:37:13;;;;;;;42.00;14.60;;;;;;;;;;5041996;28;20064;-71
2022/12/04 01:39:40;;;;;;;51.22;19.70;;;;;;;;;;5073638;28;20048;-71
2022/12/04 01:42:06;;;;;;;28.20;12.30;;;;;;;;;;5073163;28;20285;-72
2022/12/04 01:44:32;;;;;;;31.80;12.45;;;;;;;;;;5039746;28;20044;-71
2022/12/04 01:46:59;;;;;;;39.67;14.85;;;;;;;;;;5073281;28;20059;-71
2022/12/04 01:49:28;;;;;;;47.80;18.52;;;;;;;;;;5072748;28;20090;-72
2022/12/04 01:51:57;;;;;;;54.72;21.02;;;;;;;;;;5073195;28;20102;-71
2022/12/04 01:54:27;;;;;;;48.60;19.50;;;;;;;;;;5058437;28;20052;-71
2022/12/04 01:56:56;;;;;;;56.05;21.35;;;;;;;;;;5074371;28;20097;-71
2022/12/04 01:59:26;;;;;;;59.88;21.52;;;;;;;;;;5072823;28;20037;-72
2022/12/04 02:01:56;;;;;;;53.03;20.98;;;;;;;;;;5073350;28;20075;-71
2022/12/04 02:04:23;;;;;;;53.70;22.05;;;;;;;;;;5072475;28;20040;-71
2022/12/04 02:06:49;;;;;;;55.13;20.77;;;;;;;;;;5056275;28;20044;-71
2022/12/04 02:09:15;;;;;;;49.78;19.70;;;;;;;;;;5055602;28;20052;-72
2022/12/04 02:11:45;;;;;;;53.85;20.58;;;;;;;;;;5064383;28;20097;-72
2022/12/04 02:14:14;;;;;;;57.47;21.42;;;;;;;;;;5067439;28;20040;-71
2022/12/04 02:17:01;;;;;;;52.08;20.90;;;;;;;;;;5072158;28;20032;-72
2022/12/04 02:19:39;;;;;;;38.25;16.08;;;;;;;;;;5072191;28;20489;-71
2022/12/04 02:22:10;;;;;;;50.55;19.02;;;;;;;;;;5072630;28;20048;-71
2022/12/04 02:24:36;;;;;;;53.30;19.65;;;;;;;;;;5072251;28;20493;-71
2022/12/04 02:27:04;;;;;;;55.17;21.08;;;;;;;;;;5064569;28;20048;-71
2022/12/04 02:29:33;;;;;;;39.63;15.10;;;;;;;;;;5066321;28;20389;-72
2022/12/04 02:32:09;;;;;;;52.35;20.27;;;;;;;;;;5045062;28;20032;-71
2022/12/04 02:34:52;;;;;;;47.70;19.35;;;;;;;;;;5072025;28;20434;-71
2022/12/04 02:37:24;;;;;;;57.20;21.48;;;;;;;;;;5040305;28;20044;-71
2022/12/04 02:39:56;;;;;;;56.65;20.83;;;;;;;;;;5083852;28;20041;-71
2022/12/04 02:42:30;;;;;;;53.58;21.60;;;;;;;;;;5073122;28;20044;-71
2022/12/04 02:44:58;;;;;;;56.97;20.05;;;;;;;;;;5072115;28;20080;-71
2022/12/04 02:47:25;;;;;;;55.30;20.25;;;;;;;;;;5071740;28;20055;-71
2022/12/04 02:49:53;;;;;;;63.10;22.48;;;;;;;;;;5072170;28;20531;-71
2022/12/04 02:52:22;;;;;;;52.65;19.83;;;;;;;;;;5072975;28;20055;-71
2022/12/04 02:54:54;;;;;;;53.85;20.38;;;;;;;;;;5071618;28;20048;-71
2022/12/04 02:57:27;;;;;;;57.75;22.38;;;;;;;;;;5054700;28;20045;-71
2022/12/04 02:59:56;;;;;;;48.67;19.85;;;;;;;;;;5055375;28;20501;-71
2022/12/04 03:02:22;;;;;;;56.50;22.58;;;;;;;;;;5048596;28;20359;-71
2022/12/04 03:04:49;;;;;;;55.75;22.73;;;;;;;;;;5050908;28;20058;-71
2022/12/04 03:07:38;;;;;;;56.13;22.00;;;;;;;;;;5051419;28;20041;-71
2022/12/04 03:10:17;;;;;;;60.72;22.73;;;;;;;;;;5048598;28;20098;-71
2022/12/04 03:12:47;;;;;;;54.28;20.83;;;;;;;;;;5051270;28;20120;-71
2022/12/04 03:15:17;;;;;;;53.35;21.58;;;;;;;;;;5052013;28;20037;-71
2022/12/04 03:18:00;;;;;;;56.25;20.65;;;;;;;;;;5051377;28;20402;-71
2022/12/04 03:20:27;;;;;;;58.95;22.17;;;;;;;;;;5078082;28;20059;-71
2022/12/04 03:22:56;;;;;;;46.70;16.23;;;;;;;;;;5051848;28;20530;-71
2022/12/04 03:25:25;;;;;;;47.08;18.25;;;;;;;;;;5051456;28;20094;-72
2022/12/04 03:27:56;;;;;;;47.25;18.40;;;;;;;;;;5084154;28;20051;-71
2022/12/04 03:30:22;;;;;;;42.47;16.77;;;;;;;;;;5071518;28;20051;-71
2022/12/04 03:32:55;;;;;;;43.33;17.30;;;;;;;;;;5071373;28;20106;-71
2022/12/04 03:35:37;;;;;;;61.53;23.08;;;;;;;;;;5076768;28;20396;-71
2022/12/04 03:38:03;;;;;;;55.88;22.23;;;;;;;;;;5054726;28;20040;-71
2022/12/04 03:40:42;;;;;;;55.60;22.42;;;;;;;;;;5072128;28;20063;-72
2022/12/04 03:43:13;;;;;;;51.45;19.30;;;;;;;;;;5070918;28;20105;-71
2022/12/04 03:45:51;;;;;;;60.53;23.70;;;;;;;;;;5070752;28;20123;-71
2022/12/04 03:48:20;;;;;;;45.28;18.70;;;;;;;;;;5070924;28;20052;-72
2022/12/04 03:50:49;;;;;;;60.20;23.45;;;;;;;;;;5070659;28;20599;-71
2022/12/04 03:53:39;;;;;;;57.25;22.63;;;;;;;;;;5071414;28;20051;-72
2022/12/04 03:56:08;;;;;;;57.85;21.10;;;;;;;;;;5063032;28;20129;-71
2022/12/04 03:58:36;;;;;;;52.70;17.73;;;;;;;;;;5072005;28;20033;-72
2022/12/04 04:01:03;;;;;;;59.85;21.17;;;;;;;;;;5072514;28;20037;-72
2022/12/04 04:03:33;;;;;;;55.72;23.20;;;;;;;;;;5054160;28;20492;-72
2022/12/04 04:06:17;;;;;;;58.50;22.73;;;;;;;;;;5054065;28;20044;-71
2022/12/04 04:08:46;;;;;;;58.35;22.35;;;;;;;;;;5053758;28;20094;-72
2022/12/04 04:11:12;;;;;;;57.45;21.33;;;;;;;;;;5072061;28;20457;-71
2022/12/04 04:25:03;;;;;;;52.70;19.90;;;;;;;;;;5043234;28;20051;-72
2022/12/04 04:27:29;;;;;;;58.63;22.65;;;;;;;;;;5053277;28;20080;-71
2022/12/04 04:29:55;;;;;;;61.85;23.33;;;;;;;;;;5051661;28;20131;-71
2022/12/04 04:32:27;;;;;;;57.55;22.48;;;;;;;;;;5070648;28;20053;-72
2022/12/04 04:35:00;;;;;;;62.80;23.52;;;;;;;;;;5053271;28;20041;-72
2022/12/04 04:37:49;;;;;;;61.72;23.45;;;;;;;;;;5070678;28;20037;-72
2022/12/04 04:40:21;;;;;;;57.47;22.95;;;;;;;;;;5065342;28;20041;-72
2022/12/04 04:43:10;;;;;;;64.32;23.58;;;;;;;;;;5074042;28;20170;-72
2022/12/04 04:45:40;;;;;;;58.55;23.50;;;;;;;;;;5069816;28;20531;-71
2022/12/04 04:48:06;;;;;;;56.53;20.17;;;;;;;;;;5074373;28;20185;-72
2022/12/04 04:50:33;;;;;;;61.40;23.15;;;;;;;;;;5074513;28;20473;-72
2022/12/04 04:53:03;;;;;;;66.55;23.55;;;;;;;;;;5074439;28;20107;-72
2022/12/04 04:55:33;;;;;;;61.88;23.92;;;;;;;;;;5074158;28;20048;-72
2022/12/04 04:58:09;;;;;;;61.50;23.65;;;;;;;;;;5074102;28;20047;-71
2022/12/04 05:00:35;;;;;;;58.63;23.10;;;;;;;;;;5067722;28;20052;-72
2022/12/04 05:03:01;;;;;;;60.35;22.75;;;;;;;;;;5053554;28;20041;-72
2022/12/04 05:05:27;;;;;;;64.25;24.42;;;;;;;;;;5054570;28;20044;-72
2022/12/04 05:07:53;;;;;;;63.42;23.60;;;;;;;;;;5053539;28;20116;-72
2022/12/04 05:10:19;;;;;;;54.50;20.30;;;;;;;;;;5053869;28;20094;-72
2022/12/04 05:12:45;;;;;;;64.40;25.27;;;;;;;;;;5053417;28;20051;-71
2022/12/04 05:15:12;;;;;;;63.15;24.75;;;;;;;;;;5055082;28;20025;-72
2022/12/04 05:17:38;;;;;;;58.08;22.17;;;;;;;;;;5053506;28;20079;-72
2022/12/04 05:20:05;;;;;;;65.93;24.88;;;;;;;;;;5054008;28;20398;-72
2022/12/04 05:22:35;;;;;;;57.60;21.65;;;;;;;;;;5046843;28;20040;-72
2022/12/04 05:25:02;;;;;;;63.42;24.45;;;;;;;;;;5086937;28;20045;-71
2022/12/04 05:27:29;;;;;;;59.35;24.73;;;;;;;;;;5053628;28;20052;-71
2022/12/04 05:29:56;;;;;;;66.72;24.30;;;;;;;;;;5070478;28;20382;-71
2022/12/04 05:32:23;;;;;;;63.78;23.60;;;;;;;;;;5073638;28;20041;-72
2022/12/04 05:34:50;;;;;;;60.70;23.92;;;;;;;;;;5073120;28;20484;-71
2022/12/04 05:37:16;;;;;;;68.63;25.00;;;;;;;;;;5056883;28;20040;-71
2022/12/04 05:39:42;;;;;;;58.70;23.23;;;;;;;;;;5073135;28;20072;-72
2022/12/04 05:42:08;;;;;;;59.80;22.70;;;;;;;;;;5057053;28;20044;-72
2022/12/04 05:44:34;;;;;;;63.60;25.70;;;;;;;;;;5073768;28;20497;-72
2022/12/04 05:47:00;;;;;;;67.22;24.70;;;;;;;;;;5072983;28;20409;-72
2022/12/04 05:49:30;;;;;;;66.85;25.75;;;;;;;;;;5074682;28;20045;-72
2022/12/04 05:51:56;;;;;;;67.60;26.13;;;;;;;;;;5072871;28;20051;-71
2022/12/04 05:54:23;;;;;;;53.20;20.45;;;;;;;;;;5073107;28;20045;-71
2022/12/04 05:56:49;;;;;;;68.80;26.15;;;;;;;;;;5073990;28;20086;-71
2022/12/04 05:59:16;;;;;;;66.93;24.95;;;;;;;;;;5073428;28;20388;-72
2022/12/04 06:01:43;;;;;;;64.10;24.50;;;;;;;;;;5072602;28;20165;-72
2022/12/04 06:04:09;;;;;;;61.38;24.35;;;;;;;;;;5072917;28;20089;-72
2022/12/04 06:06:35;;;;;;;65.75;25.95;;;;;;;;;;5072976;28;20090;-72
2022/12/04 06:09:02;;;;;;;62.97;24.73;;;;;;;;;;5072562;28;20039;-72
2022/12/04 06:11:29;;;;;;;65.75;25.75;;;;;;;;;;5073042;28;20401;-72
2022/12/04 06:13:55;;;;;;;47.58;18.45;;;;;;;;;;5072308;28;20059;-72
2022/12/04 06:16:23;;;;;;;63.17;24.50;;;;;;;;;;5072965;28;20040;-72
2022/12/04 06:18:50;;;;;;;65.25;26.20;;;;;;;;;;5072199;28;20036;-71
2022/12/04 06:21:16;;;;;;;57.22;21.60;;;;;;;;;;5072933;28;20542;-71
2022/12/04 06:23:42;;;;;;;65.60;24.70;;;;;;;;;;5072574;28;20048;-71
2022/12/04 06:26:09;;;;;;;63.17;23.60;;;;;;;;;;5072030;28;20083;-71
2022/12/04 06:28:35;;;;;;;63.65;24.52;;;;;;;;;;5059361;28;20037;-72
2022/12/04 06:31:06;;;;;;;62.72;23.88;;;;;;;;;;5057458;28;20047;-72
2022/12/04 06:33:32;;;;;;;60.17;24.25;;;;;;;;;;5073099;28;20091;-73
2022/12/04 06:35:59;;;;;;;61.25;24.48;;;;;;;;;;5055650;28;20143;-73
2022/12/04 06:38:25;;;;;;;55.25;20.42;;;;;;;;;;5072518;28;20119;-73
2022/12/04 06:40:51;;;;;;;67.40;25.65;;;;;;;;;;5073147;28;20048;-73
2022/12/04 06:43:17;;;;;;;57.42;22.70;;;;;;;;;;5073651;28;20128;-73
2022/12/04 06:45:43;;;;;;;57.05;23.25;;;;;;;;;;5055908;28;20397;-77
2022/12/04 06:48:12;;;;;;;60.75;24.30;;;;;;;;;;5071918;28;20040;-77
2022/12/04 06:50:38;;;;;;;58.35;22.33;;;;;;;;;;5060595;28;20481;-77
2022/12/04 06:53:04;;;;;;;62.42;23.92;;;;;;;;;;5051542;28;20041;-77
2022/12/04 06:55:30;;;;;;;63.30;24.42;;;;;;;;;;5052026;28;20049;-77
2022/12/04 06:57:56;;;;;;;61.58;24.90;;;;;;;;;;5052077;28;20056;-78
2022/12/04 07:00:26;;;;;;;61.70;24.33;;;;;;;;;;5052267;28;20045;-78
2022/12/04 07:02:52;;;;;;;59.13;23.05;;;;;;;;;;5051968;28;20079;-79
2022/12/04 07:05:18;;;;;;;58.33;22.60;;;;;;;;;;5051949;28;20044;-77
2022/12/04 07:07:44;;;;;;;58.95;23.13;;;;;;;;;;5051908;28;20047;-76
2022/12/04 07:10:10;;;;;;;60.83;24.58;;;;;;;;;;5051436;28;20132;-78
2022/12/04 07:12:36;;;;;;;61.92;24.15;;;;;;;;;;5051881;28;20059;-77
2022/12/04 07:15:02;;;;;;;51.15;19.05;;;;;;;;;;5052720;28;20080;-76
2022/12/04 07:17:28;;;;;;;53.75;19.90;;;;;;;;;;5053085;28;20069;-76
2022/12/04 07:19:54;;;;;;;61.13;23.98;;;;;;;;;;5051477;28;20040;-77
2022/12/04 07:22:20;;;;;;;60.97;24.08;;;;;;;;;;5035304;28;20044;-78
2022/12/04 07:24:46;;;;;;;56.05;22.92;;;;;;;;;;5052068;28;20478;-78
2022/12/04 07:27:12;;;;;;;61.72;23.45;;;;;;;;;;5053437;28;20489;-78
2022/12/04 07:29:38;;;;;;;57.85;23.25;;;;;;;;;;5066109;28;20047;-78
2022/12/04 07:32:04;;;;;;;60.50;23.27;;;;;;;;;;5052812;28;20041;-78
2022/12/04 07:34:30;;;;;;;58.88;23.15;;;;;;;;;;5048732;28;20127;-78
2022/12/04 07:36:56;;;;;;;60.05;24.60;;;;;;;;;;5049672;28;20037;-79
2022/12/04 07:39:26;;;;;;;56.47;22.13;;;;;;;;;;5062987;28;20056;-79
2022/12/04 07:41:52;;;;;;;57.80;22.52;;;;;;;;;;5068015;28;20044;-78
2022/12/04 07:44:18;;;;;;;61.78;23.45;;;;;;;;;;5044394;28;20036;-79
2022/12/04 07:46:44;;;;;;;62.00;22.98;;;;;;;;;;5072517;28;20033;-79
2022/12/04 07:49:12;;;;;;;58.83;22.27;;;;;;;;;;5064490;28;20055;-79
2022/12/04 07:51:38;;;;;;;51.35;19.67;;;;;;;;;;5065549;28;20045;-79
2022/12/04 07:54:04;;;;;;;60.78;23.30;;;;;;;;;;5071117;28;20045;-78
2022/12/04 07:56:30;;;;;;;48.30;17.88;;;;;;;;;;5070385;28;20056;-72
2022/12/04 07:58:59;;;;;;;60.13;21.38;;;;;;;;;;5052352;28;20120;-72
2022/12/04 08:01:28;;;;;;;58.10;22.73;;;;;;;;;;5051287;28;20076;-72
2022/12/04 08:03:56;;;;;;;58.60;22.85;;;;;;;;;;5050977;28;20041;-73
2022/12/04 08:06:23;;;;;;;56.47;22.38;;;;;;;;;;5050821;28;20048;-73
2022/12/04 08:08:49;;;;;;;57.95;22.55;;;;;;;;;;5034172;28;20047;-72
2022/12/04 08:11:17;;;;;;;60.28;23.42;;;;;;;;;;5050278;28;20044;-72
2022/12/04 08:13:43;;;;;;;61.70;23.70;;;;;;;;;;5050258;28;20048;-72
2022/12/04 08:16:10;;;;;;;59.65;22.15;;;;;;;;;;5050606;28;20502;-70
2022/12/04 08:18:36;;;;;;;62.20;22.67;;;;;;;;;;5052020;28;20501;-70
2022/12/04 08:21:06;;;;;;;59.72;24.05;;;;;;;;;;5050610;28;20033;-70
2022/12/04 08:23:33;;;;;;;64.63;24.42;;;;;;;;;;5034135;28;20044;-70
2022/12/04 08:25:59;;;;;;;61.40;21.88;;;;;;;;;;5050745;28;20156;-69
2022/12/04 08:28:25;;;;;;;57.63;21.60;;;;;;;;;;5055432;28;20044;-70
2022/12/04 08:30:51;;;;;;;57.17;22.70;;;;;;;;;;5070612;28;20554;-70
2022/12/04 08:33:20;;;;;;;64.80;25.30;;;;;;;;;;5053482;28;20481;-71
2022/12/04 08:35:46;;;;;;;64.60;22.70;;;;;;;;;;5054102;28;20044;-71
2022/12/04 08:38:12;;;;;;;59.63;23.15;;;;;;;;;;5070938;28;20510;-71
2022/12/04 08:40:38;;;;;;;60.78;24.00;;;;;;;;;;5053743;28;20040;-72
2022/12/04 08:43:04;;;;;;;50.08;18.00;;;;;;;;;;5070102;28;20079;-72
2022/12/04 08:45:30;;;;;;;63.78;23.73;;;;;;;;;;5070377;28;20041;-73
2022/12/04 08:47:56;;;;;;;62.30;23.52;;;;;;;;;;5070695;28;20131;-72
2022/12/04 08:50:23;;;;;;;64.30;23.90;;;;;;;;;;5103422;28;20078;-72
2022/12/04 08:52:49;;;;;;;57.20;21.05;;;;;;;;;;5070654;28;20466;-73
2022/12/04 08:55:15;;;;;;;57.50;21.65;;;;;;;;;;5069802;28;20501;-72
2022/12/04 08:57:41;;;;;;;49.80;18.17;;;;;;;;;;5070418;28;20047;-72
2022/12/04 09:00:07;;;;;;;64.55;23.85;;;;;;;;;;5069961;28;20090;-72
2022/12/04 09:02:36;;;;;;;63.78;24.02;;;;;;;;;;5071033;28;20071;-72
2022/12/04 09:05:02;;;;;;;62.22;24.33;;;;;;;;;;5060609;28;20045;-72
2022/12/04 09:07:28;;;;;;;66.00;24.88;;;;;;;;;;5056311;28;20119;-77
2022/12/04 09:09:55;;;;;;;64.72;24.33;;;;;;;;;;5043173;28;20038;-78
2022/12/04 09:12:21;;;;;;;67.65;25.42;;;;;;;;;;5052634;28;20387;-77
2022/12/04 09:14:47;;;;;;;63.00;24.10;;;;;;;;;;5053593;28;20478;-76
2022/12/04 09:17:22;;;;;;;67.90;24.40;;;;;;;;;;5042569;28;20047;-78
2022/12/04 09:20:21;;;;;;;66.05;25.08;;;;;;;;;;5050613;28;20037;-78
2022/12/04 09:22:55;;;;;;;62.50;23.17;;;;;;;;;;5057753;28;20058;-78
2022/12/04 09:25:27;;;;;;;49.08;17.65;;;;;;;;;;5051902;28;20037;-78
2022/12/04 09:28:03;;;;;;;61.40;22.35;;;;;;;;;;5070321;28;20052;-78
2022/12/04 09:43:35;;;;;;;67.18;23.63;;;;;;;;;;5056434;28;20041;-77
2022/12/04 09:49:41;;;;;;;;;;;;;;;;;;;;;
2022/12/04 09:55:31;;;;;;;65.88;24.73;;;;;;;;;;4973243;28;20129;-77
2022/12/04 09:58:00;;;;;;;61.53;22.25;;;;;;;;;;4976990;28;20081;-77
2022/12/04 10:00:27;;;;;;;65.35;24.42;;;;;;;;;;5015652;28;20037;-77
2022/12/04 10:03:02;;;;;;;75.30;26.88;;;;;;;;;;5013053;28;20149;-77
2022/12/04 10:05:36;;;;;;;59.05;21.23;;;;;;;;;;5015831;28;20042;-78
2022/12/04 10:08:05;;;;;;;65.75;23.70;;;;;;;;;;4999646;28;20049;-78
2022/12/04 10:10:48;;;;;;;68.20;25.75;;;;;;;;;;5016143;28;20029;-77
2022/12/04 10:13:22;;;;;;;65.18;24.75;;;;;;;;;;5015573;28;20137;-77
2022/12/04 10:16:09;;;;;;;65.00;24.73;;;;;;;;;;5015853;28;20034;-77
2022/12/04 10:18:41;;;;;;;69.55;25.00;;;;;;;;;;4998825;28;20128;-77
2022/12/04 10:21:20;;;;;;;66.60;24.58;;;;;;;;;;5015873;28;20079;-78
2022/12/04 10:23:46;;;;;;;66.82;24.58;;;;;;;;;;5042414;28;20162;-78
2022/12/04 10:26:16;;;;;;;62.42;24.83;;;;;;;;;;5052970;28;20064;-77
2022/12/04 10:28:57;;;;;;;68.15;25.98;;;;;;;;;;5061934;28;20090;-78
2022/12/04 10:31:24;;;;;;;65.68;23.77;;;;;;;;;;5072528;28;20062;-78
2022/12/04 10:33:52;;;;;;;63.72;24.80;;;;;;;;;;5072839;28;20071;-78
2022/12/04 10:36:19;;;;;;;67.88;25.38;;;;;;;;;;5058534;28;20042;-77
2022/12/04 10:39:04;;;;;;;43.53;14.73;;;;;;;;;;5059606;28;20064;-78
2022/12/04 10:41:49;;;;;;;66.95;25.35;;;;;;;;;;5072095;28;20048;-77
2022/12/04 10:44:16;;;;;;;69.47;24.15;;;;;;;;;;5072424;28;20052;-78
2022/12/04 10:46:42;;;;;;;67.07;25.40;;;;;;;;;;5057195;28;20037;-78
2022/12/04 10:49:15;;;;;;;64.43;25.55;;;;;;;;;;5052579;28;20045;-77
2022/12/04 10:51:43;;;;;;;64.75;24.65;;;;;;;;;;5066229;28;20043;-78
2022/12/04 10:54:29;;;;;;;57.85;21.02;;;;;;;;;;5060424;28;20089;-78
2022/12/04 10:56:56;;;;;;;64.68;22.75;;;;;;;;;;5053937;28;20036;-78
2022/12/04 10:59:23;;;;;;;68.22;24.70;;;;;;;;;;5052446;28;20490;-78
2022/12/04 11:01:49;;;;;;;56.15;21.55;;;;;;;;;;5052394;28;20183;-78
2022/12/04 11:04:23;;;;;;;61.17;23.00;;;;;;;;;;5021766;28;20045;-78
2022/12/04 11:06:50;;;;;;;61.58;24.60;;;;;;;;;;5065055;28;20048;-77
2022/12/04 11:09:21;;;;;;;58.20;22.10;;;;;;;;;;5052710;28;20055;-78
2022/12/04 11:11:47;;;;;;;60.47;23.13;;;;;;;;;;5051821;28;20044;-78
2022/12/04 11:14:22;;;;;;;54.38;22.45;;;;;;;;;;5052475;28;20405;-78
2022/12/04 11:16:50;;;;;;;58.95;23.15;;;;;;;;;;5019222;28;20496;-78
2022/12/04 11:19:26;;;;;;;50.33;20.23;;;;;;;;;;5069969;28;20119;-78
2022/12/04 11:21:54;;;;;;;55.67;22.33;;;;;;;;;;5061327;28;20409;-78
2022/12/04 11:24:22;;;;;;;55.13;22.70;;;;;;;;;;5052306;28;20131;-78
2022/12/04 11:26:49;;;;;;;50.65;19.30;;;;;;;;;;5066312;28;20052;-78
2022/12/04 11:29:17;;;;;;;58.38;22.65;;;;;;;;;;5080790;28;20086;-78
2022/12/04 11:31:53;;;;;;;49.03;20.60;;;;;;;;;;5067265;28;20098;-78
2022/12/04 11:34:22;;;;;;;51.85;21.85;;;;;;;;;;5051793;28;20098;-78
2022/12/04 11:36:53;;;;;;;54.97;21.55;;;;;;;;;;5049101;28;20052;-78
2022/12/04 11:39:39;;;;;;;41.40;16.45;;;;;;;;;;5051698;28;20501;-78
2022/12/04 11:42:19;;;;;;;46.22;19.35;;;;;;;;;;5035147;28;20045;-78
2022/12/04 11:44:50;;;;;;;51.63;20.52;;;;;;;;;;5047816;28;20075;-78
2022/12/04 11:47:17;;;;;;;49.45;20.17;;;;;;;;;;5071835;28;20056;-78
2022/12/04 11:49:43;;;;;;;32.88;13.45;;;;;;;;;;5058021;28;20040;-78
2022/12/04 11:52:29;;;;;;;46.17;19.75;;;;;;;;;;5048874;28;20474;-78
2022/12/04 11:55:01;;;;;;;47.30;20.88;;;;;;;;;;5041060;28;20048;-78
2022/12/04 11:57:27;;;;;;;48.60;21.05;;;;;;;;;;5065159;28;20048;-78
2022/12/04 12:00:12;;;;;;;47.28;19.10;;;;;;;;;;5034594;28;20047;-78
2022/12/04 12:02:50;;;;;;;44.95;18.42;;;;;;;;;;5041365;28;20496;-78
2022/12/04 12:05:22;;;;;;;42.22;18.58;;;;;;;;;;5071500;28;20075;-78
2022/12/04 12:07:57;;;;;;;32.60;13.88;;;;;;;;;;5063540;28;20043;-79
2022/12/04 12:10:31;;;;;;;43.70;17.33;;;;;;;;;;5051442;28;20394;-78
2022/12/04 12:13:04;;;;;;;45.08;19.20;;;;;;;;;;5058697;28;20378;-77
2022/12/04 12:15:30;;;;;;;42.10;18.38;;;;;;;;;;5071136;28;20051;-78
2022/12/04 12:18:13;;;;;;;35.47;15.32;;;;;;;;;;5064564;28;20045;-78
2022/12/04 12:20:51;;;;;;;40.88;17.77;;;;;;;;;;5065204;28;20033;-78
2022/12/04 12:23:23;;;;;;;43.40;17.20;;;;;;;;;;5051485;28;20116;-78
2022/12/04 12:25:57;;;;;;;36.97;16.55;;;;;;;;;;5035303;28;20145;-77
2022/12/04 12:28:23;;;;;;;34.25;13.30;;;;;;;;;;5056855;28;20032;-78
2022/12/04 12:31:05;;;;;;;33.53;14.50;;;;;;;;;;5060107;28;20055;-78
2022/12/04 12:33:37;;;;;;;30.17;12.95;;;;;;;;;;5052834;28;20048;-78
2022/12/04 12:36:09;;;;;;;29.88;14.38;;;;;;;;;;5072146;28;20032;-78
2022/12/04 12:38:49;;;;;;;30.65;13.30;;;;;;;;;;5053650;28;20047;-77
2022/12/04 12:41:18;;;;;;;27.27;13.48;;;;;;;;;;5064734;28;20051;-77
2022/12/04 12:43:48;;;;;;;24.85;10.50;;;;;;;;;;5050798;28;20041;-78
2022/12/04 12:46:23;;;;;;;24.70;10.07;;;;;;;;;;5084593;28;20037;-78
2022/12/04 12:49:03;;;;;;;27.90;12.90;;;;;;;;;;5050530;28;20430;-78
2022/12/04 12:51:45;;;;;;;21.00;9.30;;;;;;;;;;5037610;28;20128;-78
2022/12/04 12:54:57;;;;;;;24.63;11.20;;;;;;;;;;5050947;28;20484;-78
2022/12/04 12:57:06;;;;;;;23.98;11.40;;;;;;;;;;5045681;28;20049;-78
2022/12/04 12:59:39;;;;;;;25.25;11.55;;;;;;;;;;5050788;28;20086;-79
2022/12/04 13:02:25;;;;;;;20.45;9.50;;;;;;;;;;5054736;28;20044;-80
2022/12/04 13:04:53;;;;;;;24.75;11.23;;;;;;;;;;5077700;28;20084;-79
2022/12/04 13:07:51;;;;;;;28.98;13.23;;;;;;;;;;5054890;28;20051;-76
2022/12/04 13:10:33;;;;;;;27.73;11.80;;;;;;;;;;5022028;28;20103;-77
2022/12/04 13:13:01;;;;;;;26.88;11.95;;;;;;;;;;5054640;28;20045;-79
2022/12/04 13:15:36;;;;;;;26.33;11.65;;;;;;;;;;5055163;28;20033;-77
2022/12/04 13:18:03;;;;;;;24.17;11.60;;;;;;;;;;5054379;28;20029;-77
2022/12/04 13:20:31;;;;;;;23.85;11.02;;;;;;;;;;5037833;28;20490;-78
2022/12/04 13:23:00;;;;;;;27.15;12.13;;;;;;;;;;5054137;28;20033;-77
2022/12/04 13:25:40;;;;;;;27.40;12.70;;;;;;;;;;5054707;28;20498;-78
2022/12/04 13:28:06;;;;;;;30.52;11.85;;;;;;;;;;5053902;28;20106;-77
2022/12/04 13:30:47;;;;;;;28.77;13.05;;;;;;;;;;5053856;28;20041;-77
2022/12/04 13:33:13;;;;;;;22.67;9.93;;;;;;;;;;5052873;28;20047;-78
2022/12/04 13:35:52;;;;;;;28.50;12.90;;;;;;;;;;5044591;28;20041;-78
2022/12/04 13:38:21;;;;;;;27.20;11.57;;;;;;;;;;5054175;28;20124;-78
2022/12/04 13:40:58;;;;;;;30.00;13.65;;;;;;;;;;5053807;28;20033;-77
2022/12/04 13:43:30;;;;;;;27.63;12.10;;;;;;;;;;5054341;28;20064;-78
2022/12/04 13:46:20;;;;;;;27.90;13.63;;;;;;;;;;5053409;28;20045;-78
2022/12/04 13:48:47;;;;;;;28.58;13.68;;;;;;;;;;5053729;28;20112;-78
2022/12/04 13:51:13;;;;;;;29.23;13.48;;;;;;;;;;5053509;28;20049;-78
2022/12/04 13:53:39;;;;;;;28.67;13.27;;;;;;;;;;5054994;28;20410;-78
2022/12/04 13:56:06;;;;;;;30.95;13.77;;;;;;;;;;5053495;28;20538;-78
2022/12/04 13:58:34;;;;;;;29.65;13.63;;;;;;;;;;5053553;28;20524;-78
2022/12/04 14:01:01;;;;;;;27.67;13.25;;;;;;;;;;5053059;28;20444;-78
2022/12/04 14:03:46;;;;;;;28.60;12.88;;;;;;;;;;5036694;28;20047;-78
2022/12/04 14:06:23;;;;;;;26.20;11.30;;;;;;;;;;5053148;28;20041;-78
2022/12/04 14:08:54;;;;;;;32.55;13.85;;;;;;;;;;5052575;28;20056;-78
2022/12/04 14:11:22;;;;;;;17.02;8.30;;;;;;;;;;5052910;28;20116;-77
2022/12/04 14:13:49;;;;;;;19.58;7.40;;;;;;;;;;5069780;28;20041;-77
2022/12/04 14:16:21;;;;;;;27.75;13.55;;;;;;;;;;5039474;28;20418;-78
2022/12/04 14:18:49;;;;;;;24.05;11.55;;;;;;;;;;5053830;28;20370;-78
2022/12/04 14:21:15;;;;;;;25.00;12.85;;;;;;;;;;5053711;28;20045;-77
2022/12/04 14:23:42;;;;;;;23.45;10.50;;;;;;;;;;5053661;28;20045;-77
2022/12/04 14:26:22;;;;;;;26.88;11.77;;;;;;;;;;5037240;28;20063;-79
2022/12/04 14:28:49;;;;;;;30.10;13.23;;;;;;;;;;5053399;28;20037;-79
2022/12/04 14:31:36;;;;;;;24.45;11.32;;;;;;;;;;5053941;28;20075;-79
2022/12/04 14:34:11;;;;;;;27.33;12.85;;;;;;;;;;5063041;28;20032;-79
2022/12/04 14:36:41;;;;;;;17.60;8.57;;;;;;;;;;5058778;28;20139;-79
2022/12/04 14:39:10;;;;;;;28.10;12.65;;;;;;;;;;5063729;28;20037;-79
2022/12/04 14:41:38;;;;;;;28.02;13.68;;;;;;;;;;5066673;28;20044;-78
2022/12/04 14:44:04;;;;;;;32.40;15.18;;;;;;;;;;5052216;28;20041;-79
2022/12/04 14:46:33;;;;;;;24.38;11.07;;;;;;;;;;5050077;28;20123;-79
2022/12/04 14:49:14;;;;;;;28.80;12.15;;;;;;;;;;5042249;28;20032;-79
2022/12/04 14:51:59;;;;;;;31.50;14.38;;;;;;;;;;5041739;28;20052;-79
2022/12/04 14:54:44;;;;;;;29.88;13.60;;;;;;;;;;5061621;28;20037;-79
2022/12/04 14:57:22;;;;;;;28.38;14.18;;;;;;;;;;5072064;28;20060;-78
2022/12/04 14:59:49;;;;;;;29.90;13.45;;;;;;;;;;5072510;28;20032;-78
2022/12/04 15:02:17;;;;;;;27.98;13.40;;;;;;;;;;5072254;28;20044;-79
2022/12/04 15:04:46;;;;;;;33.15;15.32;;;;;;;;;;5072343;28;20044;-79
2022/12/04 15:07:23;;;;;;;31.80;14.75;;;;;;;;;;5077806;28;20375;-79